Terminal Aerodrome Forecast
Issued by NWS

Home | Current Version | Previous Version | Text Only | Print | Product List | Glossary On
Versions: 1 2 3 4 5 6 7 8 9 10 11 12 13 14 15 16 17 18
584
FTUS44 KBMX 172344
TAFANB
TAF
KANB 172344Z 1800/1824 20008KT P6SM VCSH SCT040 OVC080
     FM180400 23003KT 5SM BR VCSH OVC015
     FM180600 26002KT 4SM BR VCSH OVC004
     FM181600 34003KT 4SM BR OVC015=

USA.gov is the U.S. government's official web portal to all federal, state and local government web resources and services.